createdAt,value
2019-01-26T00:03:00.058Z,79.50
2019-01-26T00:06:37.113Z,76.10
2019-01-26T00:10:21.749Z,91.17
2019-01-26T00:14:06.452Z,88.37
2019-01-26T00:17:51.112Z,97.20
2019-01-26T00:21:35.808Z,101.03
2019-01-26T00:25:20.502Z,95.40
2019-01-26T00:29:05.071Z,96.57
2019-01-26T00:32:49.706Z,85.67
2019-01-26T00:36:34.283Z,98.77
2019-01-26T00:40:18.946Z,99.67
2019-01-26T00:44:03.579Z,98.30
2019-01-26T00:47:48.233Z,95.20
2019-01-26T00:51:32.818Z,93.83
2019-01-26T00:55:17.437Z,102.43
2019-01-26T00:59:02.064Z,111.43
2019-01-26T01:02:46.752Z,110.17
2019-01-26T01:06:25.970Z,108.53
2019-01-26T01:10:30.634Z,111.00
2019-01-26T01:18:05.547Z,106.07
2019-01-26T01:21:50.234Z,107.90
2019-01-26T01:25:34.859Z,108.37
2019-01-26T01:29:19.485Z,117.03
2019-01-26T01:33:04.130Z,112.53
2019-01-26T01:40:52.512Z,116.30
2019-01-26T01:44:37.147Z,126.73
2019-01-26T01:48:22.074Z,132.33
2019-01-26T01:52:03.066Z,132.20
2019-01-26T01:55:47.073Z,132.10
2019-01-26T01:59:32.295Z,132.27
2019-01-26T02:03:16.919Z,145.60
2019-01-26T02:07:01.542Z,141.83
2019-01-26T02:10:46.162Z,133.70
2019-01-26T02:14:30.764Z,123.93
2019-01-26T02:18:34.832Z,127.43
2019-01-26T02:22:19.474Z,140.13
2019-01-26T02:26:04.111Z,157.93
2019-01-26T02:29:48.775Z,146.37
2019-01-26T02:33:33.372Z,138.67
2019-01-26T02:37:17.984Z,138.57
2019-01-26T02:41:02.636Z,142.33
2019-01-26T02:44:47.534Z,144.10
2019-01-26T02:48:32.173Z,145.23
2019-01-26T02:52:09.759Z,128.97
2019-01-26T02:55:54.402Z,133.53
2019-01-26T02:59:39.022Z,138.20
2019-01-26T03:03:23.668Z,136.83
2019-01-26T03:07:08.267Z,143.50
2019-01-26T03:10:52.885Z,148.77
2019-01-26T03:14:37.484Z,134.20
2019-01-26T03:18:22.073Z,143.27
2019-01-26T03:22:06.730Z,149.07
2019-01-26T03:25:51.331Z,131.90
2019-01-26T03:29:35.968Z,139.37
2019-01-26T03:33:20.602Z,141.70
2019-01-26T03:37:05.196Z,140.30
2019-01-26T03:40:49.825Z,132.90
2019-01-26T03:44:34.811Z,130.00
2019-01-26T03:48:19.732Z,129.53
2019-01-26T03:51:56.866Z,138.10
2019-01-26T03:55:41.767Z,144.33
2019-01-26T03:59:26.399Z,130.57
2019-01-26T04:03:11.022Z,142.30
2019-01-26T04:06:55.737Z,133.83
2019-01-26T04:10:40.346Z,144.87
2019-01-26T04:14:24.928Z,130.30
2019-01-26T04:18:09.623Z,140.97
2019-01-26T04:21:54.237Z,140.23
2019-01-26T04:25:39.200Z,148.83
2019-01-26T04:29:23.827Z,135.93
2019-01-26T04:33:08.438Z,137.30
2019-01-26T04:36:53.133Z,140.50
2019-01-26T04:40:37.763Z,122.57
2019-01-26T04:44:22.615Z,147.03
2019-01-26T04:48:07.565Z,129.17
2019-01-26T04:51:44.459Z,148.13
2019-01-26T04:55:47.918Z,149.47
2019-01-26T04:59:32.540Z,150.37
2019-01-26T05:03:17.453Z,143.03
2019-01-26T05:06:54.377Z,131.30
2019-01-26T05:10:38.976Z,144.60
2019-01-26T05:14:23.577Z,152.13
2019-01-26T05:18:08.213Z,141.77
2019-01-26T05:21:52.821Z,149.13
2019-01-26T05:25:37.443Z,136.40
2019-01-26T05:29:22.073Z,147.70
2019-01-26T05:33:25.535Z,135.00
2019-01-26T05:37:10.151Z,133.20
2019-01-26T05:40:54.751Z,127.73
2019-01-26T05:44:39.385Z,137.07
2019-01-26T05:48:05.061Z,132.57
2019-01-26T05:51:50.211Z,125.37
2019-01-26T05:55:34.842Z,126.80
2019-01-26T05:59:19.457Z,123.80
2019-01-26T06:03:04.065Z,136.50
2019-01-26T06:06:48.738Z,117.33
2019-01-26T06:10:33.358Z,117.70
2019-01-26T06:14:17.931Z,111.60
2019-01-26T06:18:02.848Z,108.17
2019-01-26T06:21:47.536Z,109.57
2019-01-26T06:25:32.173Z,102.60
2019-01-26T06:29:16.797Z,110.53
2019-01-26T06:33:01.462Z,115.40
2019-01-26T06:36:46.080Z,97.93
2019-01-26T06:40:30.696Z,99.97
2019-01-26T06:44:15.297Z,101.33
2019-01-26T06:48:18.741Z,95.67
2019-01-26T06:51:55.968Z,103.03
2019-01-26T06:55:40.582Z,96.23
2019-01-26T06:59:25.247Z,92.97
2019-01-26T07:03:10.030Z,94.30
2019-01-26T07:07:19.783Z,86.00
2019-01-26T07:10:52.056Z,96.70
2019-01-26T07:14:36.722Z,86.20
2019-01-26T07:18:21.423Z,80.93
2019-01-26T07:22:17.930Z,84.73
2019-01-26T07:25:52.812Z,78.50
2019-01-26T07:29:37.765Z,69.30
2019-01-26T07:33:41.444Z,74.17
2019-01-26T07:37:29.050Z,74.63
2019-01-26T07:41:14.073Z,76.43
2019-01-26T07:44:58.735Z,80.87
2019-01-26T07:48:44.548Z,79.00
2019-01-26T07:52:29.841Z,79.63
2019-01-26T07:56:36.750Z,79.57
2019-01-26T08:00:08.627Z,83.17
2019-01-26T08:03:34.308Z,100.50
2019-01-26T08:07:19.034Z,79.80
2019-01-26T08:11:22.744Z,85.43
2019-01-26T08:15:09.252Z,90.77
2019-01-26T08:18:56.583Z,88.67
2019-01-26T08:22:22.614Z,96.93
2019-01-26T08:26:07.528Z,92.23
2019-01-26T08:29:52.630Z,88.52
2019-01-26T08:33:37.493Z,94.47
2019-01-26T08:37:22.156Z,98.15
2019-01-26T08:41:07.282Z,92.80
2019-01-26T08:44:52.458Z,96.20
2019-01-26T08:48:37.134Z,101.97
2019-01-26T08:52:14.276Z,101.03
2019-01-26T08:56:17.863Z,92.17
2019-01-26T09:00:02.495Z,97.20
2019-01-26T09:04:05.935Z,95.07
2019-01-26T09:07:42.855Z,87.97
2019-01-26T09:11:27.466Z,84.80
2019-01-26T09:15:12.383Z,88.97
2019-01-26T09:18:57.096Z,80.17
2019-01-26T09:22:41.727Z,83.33
2019-01-26T09:26:26.433Z,82.80
2019-01-26T09:30:11.443Z,90.43
2019-01-26T09:33:56.385Z,83.53
2019-01-26T09:37:41.342Z,79.80
2019-01-26T09:41:44.805Z,67.27
2019-01-26T09:45:30.169Z,67.10
2019-01-26T09:49:34.341Z,64.83
2019-01-26T09:53:19.143Z,67.57
2019-01-26T09:57:03.852Z,61.23
2019-01-26T10:00:48.667Z,71.77
2019-01-26T10:04:33.423Z,67.00
2019-01-26T10:08:18.134Z,67.33
2019-01-26T10:12:02.840Z,56.93
2019-01-26T10:15:47.540Z,57.60
2019-01-26T10:19:32.717Z,61.50
2019-01-26T10:27:08.214Z,52.70
2019-01-26T10:30:56.066Z,56.27
2019-01-26T10:34:40.730Z,58.23
2019-01-26T10:38:06.333Z,54.73
2019-01-26T10:42:09.834Z,52.47
2019-01-26T10:45:54.607Z,55.33
2019-01-26T10:49:20.349Z,57.87
2019-01-26T10:53:00.000Z,59.20
2019-01-26T10:56:46.601Z,53.57
2019-01-26T11:00:31.281Z,59.63
2019-01-26T11:04:16.068Z,48.90
2019-01-26T11:07:41.689Z,51.17
2019-01-26T11:11:27.878Z,49.40
2019-01-26T11:14:53.744Z,50.97
2019-01-26T11:18:38.718Z,45.77
2019-01-26T11:22:23.919Z,45.03
2019-01-26T11:26:08.809Z,44.93
2019-01-26T11:29:53.777Z,49.50
2019-01-26T11:33:39.295Z,44.93
2019-01-26T11:37:24.426Z,39.40
2019-01-26T11:41:09.392Z,35.13
2019-01-26T11:45:14.846Z,38.50
2019-01-26T11:49:00.360Z,38.53
2019-01-26T11:52:39.467Z,37.17
2019-01-26T11:56:43.461Z,37.40
2019-01-26T12:00:48.111Z,35.17
2019-01-26T12:04:52.233Z,38.57
2019-01-26T12:08:37.201Z,37.20
2019-01-26T12:12:22.024Z,36.83
2019-01-26T12:16:07.112Z,28.70
2019-01-26T12:19:51.958Z,30.27
2019-01-26T12:23:17.954Z,23.40
2019-01-26T12:27:03.074Z,27.20
2019-01-26T12:30:47.991Z,36.37
2019-01-26T12:34:33.487Z,23.20
2019-01-26T12:37:59.091Z,23.20
2019-01-26T12:41:25.030Z,24.20
2019-01-26T12:45:13.776Z,25.53
2019-01-26T12:48:50.884Z,19.20
2019-01-26T12:52:35.774Z,21.77
2019-01-26T12:56:20.692Z,25.93
2019-01-26T13:00:07.304Z,22.90
2019-01-26T13:03:52.146Z,23.53
2019-01-26T13:07:37.541Z,21.77
2019-01-26T13:11:24.982Z,21.00
2019-01-26T13:15:15.209Z,19.77
2019-01-26T13:18:57.420Z,18.97
2019-01-26T13:22:41.966Z,23.43
2019-01-26T13:26:27.039Z,23.97
2019-01-26T13:30:15.627Z,17.27
2019-01-26T13:34:00.714Z,20.00
2019-01-26T13:37:45.810Z,17.13
2019-01-26T13:41:31.102Z,19.83
2019-01-26T13:44:56.666Z,20.73
2019-01-26T13:48:41.443Z,19.13
2019-01-26T13:53:06.269Z,15.93
2019-01-26T13:56:51.712Z,19.30
2019-01-26T14:00:37.258Z,16.10
2019-01-26T14:04:23.016Z,14.20
2019-01-26T14:08:08.231Z,18.23
2019-01-26T14:11:53.789Z,18.27
2019-01-26T14:15:38.895Z,20.43
2019-01-26T14:22:55.853Z,17.10
2019-01-26T14:26:40.810Z,24.60
2019-01-26T14:30:28.775Z,20.43
2019-01-26T14:34:14.431Z,21.33
2019-01-26T14:37:59.316Z,17.47
2019-01-26T14:41:44.242Z,13.97
2019-01-26T14:45:29.871Z,16.10
2019-01-26T14:49:14.654Z,14.67
2019-01-26T14:52:59.736Z,15.17
2019-01-26T14:56:25.459Z,16.43
2019-01-26T15:00:15.766Z,14.03
2019-01-26T15:04:01.010Z,14.57
2019-01-26T15:07:48.151Z,14.57
2019-01-26T15:11:34.037Z,15.50
2019-01-26T15:19:09.539Z,14.20
2019-01-26T15:22:55.213Z,13.53
2019-01-26T15:26:40.409Z,14.97
2019-01-26T15:30:27.804Z,18.63
2019-01-26T15:34:12.820Z,15.90
2019-01-26T15:37:57.587Z,16.97
2019-01-26T15:41:42.516Z,17.03
2019-01-26T15:45:34.406Z,12.87
2019-01-26T15:49:21.788Z,12.07
2019-01-26T15:53:00.672Z,13.17
2019-01-26T15:56:26.286Z,13.60
2019-01-26T16:00:15.475Z,14.50
2019-01-26T16:03:41.065Z,13.67
2019-01-26T16:07:25.921Z,13.00
2019-01-26T16:11:12.181Z,13.97
2019-01-26T16:14:38.031Z,13.93
2019-01-26T16:18:03.781Z,12.33
2019-01-26T16:21:29.411Z,13.77
2019-01-26T16:25:14.448Z,11.90
2019-01-26T16:28:40.075Z,12.57
2019-01-26T16:32:25.025Z,12.63
2019-01-26T16:36:09.883Z,15.63
2019-01-26T16:39:55.305Z,15.60
2019-01-26T16:43:20.890Z,16.43
2019-01-26T16:47:00.631Z,15.90
2019-01-26T16:50:28.528Z,15.93
2019-01-26T16:54:13.665Z,16.03
2019-01-26T16:57:39.293Z,22.67
2019-01-26T17:01:24.129Z,19.17
2019-01-26T17:05:09.628Z,16.20
2019-01-26T17:08:54.277Z,22.67
2019-01-26T17:12:39.065Z,18.67
2019-01-26T17:16:24.131Z,17.20
2019-01-26T17:20:34.836Z,19.47
2019-01-26T17:24:17.202Z,17.63
2019-01-26T17:28:02.613Z,14.43
2019-01-26T17:31:47.711Z,15.27
2019-01-26T17:39:55.614Z,15.10
2019-01-26T17:43:40.522Z,18.77
2019-01-26T17:47:17.895Z,16.47
2019-01-26T17:51:02.665Z,13.90
2019-01-26T17:54:47.882Z,15.73
2019-01-26T17:58:32.700Z,15.03
2019-01-26T18:02:17.640Z,13.83
2019-01-26T18:06:22.016Z,12.27
2019-01-26T18:10:28.244Z,12.53
2019-01-26T18:14:13.365Z,11.10
2019-01-26T18:17:58.224Z,12.27
2019-01-26T18:21:43.149Z,12.70
2019-01-26T18:29:17.694Z,13.50
2019-01-26T18:33:03.036Z,15.27
2019-01-26T18:36:48.676Z,13.67
2019-01-26T18:40:21.053Z,15.73
2019-01-26T18:44:06.347Z,18.50
2019-01-26T18:47:31.927Z,14.93
2019-01-26T18:51:16.891Z,15.80
2019-01-26T18:58:46.446Z,17.13
2019-01-26T19:02:32.401Z,13.93
2019-01-26T19:06:17.203Z,14.57
2019-01-26T19:10:02.086Z,14.00
2019-01-26T19:13:47.104Z,16.20
2019-01-26T19:17:31.944Z,14.23
2019-01-26T19:21:03.150Z,16.27
2019-01-26T19:28:34.908Z,13.40
2019-01-26T19:32:19.953Z,15.27
2019-01-26T19:36:05.623Z,11.83
2019-01-26T19:39:50.685Z,12.10
2019-01-26T19:43:35.604Z,13.47
2019-01-26T19:47:14.040Z,10.73
2019-01-26T19:50:59.159Z,9.90
2019-01-26T19:54:24.744Z,9.00
2019-01-26T19:58:09.685Z,10.10
2019-01-26T20:01:54.556Z,8.77
2019-01-26T20:05:39.469Z,8.67
2019-01-26T20:09:24.102Z,9.13
2019-01-26T20:13:08.757Z,9.33
2019-01-26T20:20:57.157Z,8.40
2019-01-26T20:24:41.756Z,9.43
2019-01-26T20:28:26.394Z,9.60
2019-01-26T20:32:11.073Z,9.23
2019-01-26T20:35:55.670Z,8.43
2019-01-26T20:39:21.362Z,9.13
2019-01-26T20:42:58.690Z,8.00
2019-01-26T20:46:43.361Z,7.30
2019-01-26T20:50:28.202Z,6.80
2019-01-26T20:54:12.533Z,8.97
2019-01-26T20:57:57.191Z,8.77
2019-01-26T21:01:41.910Z,8.03
2019-01-26T21:05:26.702Z,7.07
2019-01-26T21:09:11.619Z,7.83
2019-01-26T21:12:56.684Z,7.47
2019-01-26T21:16:41.281Z,6.93
2019-01-26T21:20:26.471Z,9.60
2019-01-26T21:24:11.266Z,9.47
2019-01-26T21:27:55.916Z,9.10
2019-01-26T21:31:59.346Z,9.67
2019-01-26T21:35:43.957Z,8.13
2019-01-26T21:39:28.581Z,8.23
2019-01-26T21:43:13.180Z,7.00
2019-01-26T21:46:57.942Z,6.63
2019-01-26T21:50:42.578Z,7.03
2019-01-26T21:54:27.192Z,6.30
2019-01-26T21:58:11.810Z,7.67
2019-01-26T22:01:56.577Z,5.60
2019-01-26T22:05:41.189Z,5.97
2019-01-26T22:09:25.819Z,6.47
2019-01-26T22:13:10.443Z,8.43
2019-01-26T22:16:55.089Z,7.00
2019-01-26T22:20:39.714Z,5.40
2019-01-26T22:24:24.290Z,5.30
2019-01-26T22:28:08.915Z,4.70
2019-01-26T22:31:53.560Z,5.93
2019-01-26T22:35:38.392Z,4.53
2019-01-26T22:39:22.989Z,7.43
2019-01-26T22:43:07.616Z,4.37
2019-01-26T22:46:45.031Z,3.83
2019-01-26T22:50:30.185Z,3.77
2019-01-26T22:54:14.771Z,3.70
2019-01-26T22:57:59.371Z,3.80
2019-01-26T23:01:44.104Z,5.50
2019-01-26T23:06:06.896Z,4.43
2019-01-26T23:10:29.690Z,3.70
2019-01-26T23:14:37.634Z,2.93
2019-01-26T23:19:02.806Z,2.50
2019-01-26T23:23:25.889Z,2.57
2019-01-26T23:27:36.269Z,2.50
2019-01-26T23:32:00.584Z,6.93
2019-01-26T23:35:45.460Z,3.63
2019-01-26T23:39:32.506Z,3.00
2019-01-26T23:43:09.573Z,2.60
2019-01-26T23:47:13.039Z,2.83
2019-01-26T23:58:52.339Z,2.80
